Time;durP1;ratioP1;P1;durP2;ratioP2;P2;SDS_P1;SDS_P2;PMS_P1;PMS_P2;Temp;Humidity;BMP_temperature;BMP_pressure;BME280_temperature;BME280_humidity;BME280_pressure;Samples;Min_cycle;Max_cycle;Signal;HPM_P1;HPM_P2
2021/04/28 00:00:45;;;;;;;;;;;18.00;99.90;;;;;;5015752;28;19909;-72
2021/04/28 00:03:13;;;;;;;;;;;18.10;99.90;;;;;;5015594;28;20325;-73
2021/04/28 00:05:40;;;;;;;;;;;18.20;99.90;;;;;;5015532;28;19914;-73
2021/04/28 00:08:07;;;;;;;;;;;18.30;99.90;;;;;;5014931;28;19913;-72
2021/04/28 00:10:36;;;;;;;;;;;18.40;99.90;;;;;;5015910;28;19979;-73
2021/04/28 00:13:03;;;;;;;;;;;18.50;99.90;;;;;;5015403;28;19917;-72
2021/04/28 00:15:31;;;;;;;;;;;18.60;99.90;;;;;;5015647;28;19916;-73
2021/04/28 00:17:58;;;;;;;;;;;18.60;99.90;;;;;;5015363;28;19956;-73
2021/04/28 00:20:24;;;;;;;;;;;18.50;99.90;;;;;;5015358;28;20372;-72
2021/04/28 00:22:51;;;;;;;;;;;18.50;99.90;;;;;;5015030;28;19963;-73
2021/04/28 00:25:19;;;;;;;;;;;18.40;99.90;;;;;;4997409;28;19971;-71
2021/04/28 00:27:46;;;;;;;;;;;18.50;99.90;;;;;;5014867;28;20008;-71
2021/04/28 00:30:13;;;;;;;;;;;18.50;99.90;;;;;;5014936;28;19910;-73
2021/04/28 00:32:40;;;;;;;;;;;18.50;99.90;;;;;;5014585;28;19920;-72
2021/04/28 00:35:09;;;;;;;;;;;18.60;99.90;;;;;;5014765;28;19945;-70
2021/04/28 00:37:36;;;;;;;;;;;18.80;99.90;;;;;;5015142;28;19919;-73
2021/04/28 00:40:05;;;;;;;;;;;18.70;99.90;;;;;;5016774;28;20004;-72
2021/04/28 00:42:32;;;;;;;;;;;18.70;99.90;;;;;;5014661;28;19957;-72
2021/04/28 00:44:59;;;;;;;;;;;18.60;99.90;;;;;;5014381;28;19973;-72
2021/04/28 00:47:25;;;;;;;;;;;18.70;99.90;;;;;;5014328;28;20528;-72
2021/04/28 00:49:52;;;;;;;;;;;18.70;99.90;;;;;;5014587;28;19910;-72
2021/04/28 00:52:19;;;;;;;;;;;18.80;99.90;;;;;;5014603;28;19918;-72
2021/04/28 00:54:45;;;;;;;;;;;18.90;99.90;;;;;;5014214;28;19920;-73
2021/04/28 00:57:12;;;;;;;;;;;18.80;99.90;;;;;;5014252;28;19932;-73
2021/04/28 00:59:39;;;;;;;;;;;18.90;99.90;;;;;;5014082;28;19949;-73
2021/04/28 01:02:05;;;;;;;;;;;19.00;99.90;;;;;;5014234;28;19937;-70
2021/04/28 01:04:32;;;;;;;;;;;19.00;99.90;;;;;;5014162;28;20375;-70
2021/04/28 01:06:59;;;;;;;;;;;19.10;99.90;;;;;;5013947;28;19956;-69
2021/04/28 01:09:26;;;;;;;;;;;19.40;99.90;;;;;;5013920;28;19963;-71
2021/04/28 01:11:53;;;;;;;;;;;19.80;99.90;;;;;;5013848;28;19910;-71
2021/04/28 01:14:19;;;;;;;;;;;20.10;99.90;;;;;;5013783;28;19917;-70
2021/04/28 01:16:46;;;;;;;;;;;20.10;99.90;;;;;;5013434;28;20288;-72
2021/04/28 01:19:13;;;;;;;;;;;20.00;99.90;;;;;;5013799;28;19909;-72
2021/04/28 01:21:41;;;;;;;;;;;19.90;99.90;;;;;;5013785;28;19916;-70
2021/04/28 01:24:08;;;;;;;;;;;19.70;99.90;;;;;;5013750;28;20367;-71
2021/04/28 01:26:34;;;;;;;;;;;19.70;99.90;;;;;;5013920;28;20364;-72
2021/04/28 01:29:01;;;;;;;;;;;19.50;99.90;;;;;;5013671;28;20391;-71
2021/04/28 01:31:30;;;;;;;;;;;19.40;99.90;;;;;;5013853;28;20309;-71
2021/04/28 01:34:01;;;;;;;;;;;19.40;99.90;;;;;;5013488;28;19929;-70
2021/04/28 01:36:29;;;;;;;;;;;19.30;99.90;;;;;;5013649;28;20008;-69
2021/04/28 01:38:57;;;;;;;;;;;19.30;99.90;;;;;;5013403;28;20292;-70
2021/04/28 01:41:25;;;;;;;;;;;19.30;99.90;;;;;;4995878;28;19925;-72
2021/04/28 01:43:52;;;;;;;;;;;19.30;99.90;;;;;;5013739;28;19917;-72
2021/04/28 01:46:20;;;;;;;;;;;19.30;99.90;;;;;;5013699;28;19909;-71
2021/04/28 01:48:47;;;;;;;;;;;19.30;99.90;;;;;;5013113;28;19921;-70
2021/04/28 01:51:14;;;;;;;;;;;19.20;99.90;;;;;;5013402;28;19910;-74
2021/04/28 01:53:42;;;;;;;;;;;19.20;99.90;;;;;;5013362;28;20395;-71
2021/04/28 01:56:09;;;;;;;;;;;19.20;99.90;;;;;;5013527;28;19952;-73
2021/04/28 01:58:38;;;;;;;;;;;19.20;99.90;;;;;;5013415;28;20418;-72
2021/04/28 02:01:05;;;;;;;;;;;19.10;99.90;;;;;;5013126;28;19920;-71
2021/04/28 02:03:32;;;;;;;;;;;19.10;99.90;;;;;;5013044;28;19909;-73
2021/04/28 02:06:00;;;;;;;;;;;19.20;99.90;;;;;;5013853;28;20356;-73
2021/04/28 02:08:27;;;;;;;;;;;19.20;99.90;;;;;;5014273;28;20398;-72
2021/04/28 02:10:54;;;;;;;;;;;19.20;99.90;;;;;;5017212;28;19909;-73
2021/04/28 02:13:22;;;;;;;;;;;19.20;99.90;;;;;;5013229;28;19921;-72
2021/04/28 02:15:50;;;;;;;;;;;19.10;99.90;;;;;;5012866;28;20353;-72
2021/04/28 02:18:17;;;;;;;;;;;19.30;99.90;;;;;;5012915;28;19909;-73
2021/04/28 02:20:44;;;;;;;;;;;19.20;99.90;;;;;;5011746;28;20237;-70
2021/04/28 02:23:11;;;;;;;;;;;19.20;99.90;;;;;;5012799;28;19951;-73
2021/04/28 02:25:38;;;;;;;;;;;19.30;99.90;;;;;;5013088;28;19909;-69
2021/04/28 02:28:04;;;;;;;;;;;19.40;99.90;;;;;;5010709;28;20384;-72
2021/04/28 02:30:33;;;;;;;;;;;19.40;99.90;;;;;;5003485;28;19921;-68
2021/04/28 02:32:59;;;;;;;;;;;19.30;99.90;;;;;;5003674;28;19917;-71
2021/04/28 02:35:26;;;;;;;;;;;19.30;99.90;;;;;;5016931;28;19945;-71
2021/04/28 02:37:55;;;;;;;;;;;19.30;99.90;;;;;;5016926;28;20259;-71
2021/04/28 02:40:22;;;;;;;;;;;19.30;99.90;;;;;;5016558;28;20039;-72
2021/04/28 02:42:49;;;;;;;;;;;19.20;99.90;;;;;;5016293;28;19914;-70
2021/04/28 02:45:17;;;;;;;;;;;19.20;99.90;;;;;;5016557;28;20356;-70
2021/04/28 02:47:45;;;;;;;;;;;19.30;99.90;;;;;;5016560;28;19956;-70
2021/04/28 02:50:14;;;;;;;;;;;19.30;99.90;;;;;;5016422;28;19972;-69
2021/04/28 02:52:42;;;;;;;;;;;19.20;99.90;;;;;;5016181;28;20368;-70
2021/04/28 02:55:09;;;;;;;;;;;19.40;99.90;;;;;;5016426;28;20335;-68
2021/04/28 02:57:36;;;;;;;;;;;19.40;99.90;;;;;;5016156;28;20360;-70
2021/04/28 03:00:05;;;;;;;;;;;19.40;99.90;;;;;;5016453;28;20340;-67
2021/04/28 03:02:33;;;;;;;;;;;19.30;99.90;;;;;;5016264;28;19914;-70
2021/04/28 03:04:59;;;;;;;;;;;19.40;99.90;;;;;;5015845;28;20007;-68
2021/04/28 03:07:26;;;;;;;;;;;19.40;99.90;;;;;;5016189;28;20348;-67
2021/04/28 03:09:54;;;;;;;;;;;19.40;99.90;;;;;;5016121;28;19909;-69
2021/04/28 03:12:23;;;;;;;;;;;19.40;99.90;;;;;;5015798;28;19914;-69
2021/04/28 03:14:49;;;;;;;;;;;19.30;99.90;;;;;;5015685;28;20373;-71
2021/04/28 03:17:16;;;;;;;;;;;19.30;99.90;;;;;;5016022;28;20039;-70
2021/04/28 03:19:43;;;;;;;;;;;19.30;99.90;;;;;;5016569;28;20031;-69
2021/04/28 03:22:10;;;;;;;;;;;19.30;99.90;;;;;;5016104;28;19910;-71
2021/04/28 03:24:36;;;;;;;;;;;19.40;99.90;;;;;;5015671;28;19920;-68
2021/04/28 03:27:12;;;;;;;;;;;19.40;99.90;;;;;;5015369;28;19925;-69
2021/04/28 03:29:39;;;;;;;;;;;19.40;99.90;;;;;;5015745;28;19979;-69
2021/04/28 03:32:07;;;;;;;;;;;19.50;99.90;;;;;;5015483;28;19956;-71
2021/04/28 03:34:33;;;;;;;;;;;19.40;99.90;;;;;;5015467;28;19928;-70
2021/04/28 03:37:01;;;;;;;;;;;19.50;99.90;;;;;;5016054;28;19916;-71
2021/04/28 03:39:28;;;;;;;;;;;19.60;99.90;;;;;;5017974;28;19909;-69
2021/04/28 03:41:55;;;;;;;;;;;19.60;99.90;;;;;;5015003;28;19921;-72
2021/04/28 03:44:22;;;;;;;;;;;19.80;99.90;;;;;;5015113;28;19917;-70
2021/04/28 03:46:49;;;;;;;;;;;19.80;99.90;;;;;;5014927;28;20339;-72
2021/04/28 03:49:15;;;;;;;;;;;19.90;99.90;;;;;;5015299;28;20004;-72
2021/04/28 03:51:43;;;;;;;;;;;19.90;99.90;;;;;;5015370;28;19917;-72
2021/04/28 03:54:10;;;;;;;;;;;19.90;99.90;;;;;;5015352;28;20007;-71
2021/04/28 03:56:37;;;;;;;;;;;19.80;99.90;;;;;;4997719;28;19956;-71
2021/04/28 03:59:04;;;;;;;;;;;19.70;99.90;;;;;;5015001;28;19967;-72
2021/04/28 04:01:31;;;;;;;;;;;19.70;99.90;;;;;;5015378;28;19910;-70
2021/04/28 04:03:57;;;;;;;;;;;19.70;99.90;;;;;;5014976;28;20007;-68
2021/04/28 04:06:24;;;;;;;;;;;19.70;99.90;;;;;;5014920;28;19917;-70
2021/04/28 04:08:50;;;;;;;;;;;19.60;99.90;;;;;;5014810;28;20001;-70
2021/04/28 04:11:17;;;;;;;;;;;19.60;99.90;;;;;;5014993;28;19909;-69
2021/04/28 04:13:44;;;;;;;;;;;19.60;99.90;;;;;;5014603;28;20257;-70
2021/04/28 04:16:10;;;;;;;;;;;19.60;99.90;;;;;;5015429;28;19909;-70
2021/04/28 04:18:40;;;;;;;;;;;19.60;99.90;;;;;;5018568;28;19909;-70
2021/04/28 04:21:07;;;;;;;;;;;19.60;99.90;;;;;;5015807;28;19916;-70
2021/04/28 04:23:33;;;;;;;;;;;19.60;99.90;;;;;;5015307;28;19909;-71
2021/04/28 04:26:00;;;;;;;;;;;19.50;99.90;;;;;;5016814;28;19909;-71
2021/04/28 04:28:27;;;;;;;;;;;19.60;99.90;;;;;;5016085;28;20318;-70
2021/04/28 04:30:53;;;;;;;;;;;19.60;99.90;;;;;;5014687;28;19910;-70
2021/04/28 04:33:20;;;;;;;;;;;19.50;99.90;;;;;;5014617;28;19972;-71
2021/04/28 04:35:47;;;;;;;;;;;19.40;99.90;;;;;;5014680;28;19916;-71
2021/04/28 04:38:16;;;;;;;;;;;19.30;99.90;;;;;;5013915;28;19932;-70
2021/04/28 04:40:46;;;;;;;;;;;19.30;99.90;;;;;;4996876;28;19925;-70
2021/04/28 04:43:13;;;;;;;;;;;19.20;99.90;;;;;;5014851;28;19917;-70
2021/04/28 04:45:40;;;;;;;;;;;19.20;99.90;;;;;;5014903;28;19910;-69
2021/04/28 04:48:07;;;;;;;;;;;19.10;99.90;;;;;;5015288;28;19913;-71
2021/04/28 04:50:35;;;;;;;;;;;19.20;99.90;;;;;;5014811;28;19909;-71
2021/04/28 04:53:02;;;;;;;;;;;19.20;99.90;;;;;;5013347;28;19918;-71
2021/04/28 04:55:29;;;;;;;;;;;19.20;99.90;;;;;;5014289;28;20267;-71
2021/04/28 04:57:55;;;;;;;;;;;19.20;99.90;;;;;;5014358;28;19910;-71
2021/04/28 05:00:22;;;;;;;;;;;19.20;99.90;;;;;;5014098;28;20004;-70
2021/04/28 05:02:49;;;;;;;;;;;19.30;99.90;;;;;;5013977;28;19929;-71
2021/04/28 05:05:18;;;;;;;;;;;19.30;99.90;;;;;;5014144;28;20004;-71
2021/04/28 05:07:45;;;;;;;;;;;19.40;99.90;;;;;;5014346;28;19910;-72
2021/04/28 05:10:13;;;;;;;;;;;19.40;99.90;;;;;;5014040;28;19992;-72
2021/04/28 05:12:40;;;;;;;;;;;19.30;99.90;;;;;;5014011;28;20275;-71
2021/04/28 05:15:07;;;;;;;;;;;19.20;99.90;;;;;;5013663;28;19913;-71
2021/04/28 05:17:34;;;;;;;;;;;19.20;99.90;;;;;;5013783;28;20082;-71
2021/04/28 05:20:01;;;;;;;;;;;19.20;99.90;;;;;;5013770;28;20321;-70
2021/04/28 05:22:27;;;;;;;;;;;19.20;99.90;;;;;;5013549;28;19939;-70
2021/04/28 05:24:54;;;;;;;;;;;19.10;99.90;;;;;;5013237;28;20353;-71
2021/04/28 05:27:25;;;;;;;;;;;19.10;99.90;;;;;;5013784;28;19910;-71
2021/04/28 05:29:52;;;;;;;;;;;19.10;99.90;;;;;;5013688;28;20004;-72
2021/04/28 05:32:19;;;;;;;;;;;19.10;99.90;;;;;;5013536;28;20000;-71
2021/04/28 05:34:46;;;;;;;;;;;19.10;99.90;;;;;;5013594;28;20016;-71
2021/04/28 05:37:17;;;;;;;;;;;19.10;99.90;;;;;;5013673;28;20284;-71
2021/04/28 05:39:44;;;;;;;;;;;19.10;99.90;;;;;;5013599;28;20399;-70
2021/04/28 05:42:10;;;;;;;;;;;19.10;99.90;;;;;;5013577;28;20431;-70
2021/04/28 05:44:37;;;;;;;;;;;19.10;99.90;;;;;;5014453;28;19909;-71
2021/04/28 05:47:04;;;;;;;;;;;19.00;99.90;;;;;;5015411;28;19963;-72
2021/04/28 05:49:30;;;;;;;;;;;19.00;99.90;;;;;;5014467;28;20339;-71
2021/04/28 05:51:57;;;;;;;;;;;19.00;99.90;;;;;;5013437;28;19916;-72
2021/04/28 05:54:24;;;;;;;;;;;18.90;99.90;;;;;;5013495;28;20349;-71
2021/04/28 05:56:53;;;;;;;;;;;18.90;99.90;;;;;;5013085;28;19932;-70
2021/04/28 05:59:20;;;;;;;;;;;18.90;99.90;;;;;;5013300;28;19909;-70
2021/04/28 06:01:46;;;;;;;;;;;18.80;99.90;;;;;;5013468;28;19921;-70
2021/04/28 06:04:13;;;;;;;;;;;18.90;99.90;;;;;;5012707;28;19910;-70
2021/04/28 06:06:40;;;;;;;;;;;18.90;99.90;;;;;;5013372;28;19953;-70
2021/04/28 06:09:07;;;;;;;;;;;18.90;99.90;;;;;;5012987;28;19996;-71
2021/04/28 06:11:33;;;;;;;;;;;18.80;99.90;;;;;;5013134;28;19949;-70
2021/04/28 06:14:00;;;;;;;;;;;18.90;99.90;;;;;;5013304;28;19917;-71
2021/04/28 06:16:26;;;;;;;;;;;18.90;99.90;;;;;;5013155;28;20392;-72
2021/04/28 06:18:53;;;;;;;;;;;18.90;99.90;;;;;;5013000;28;19909;-71
2021/04/28 06:21:20;;;;;;;;;;;18.80;99.90;;;;;;5013117;28;19909;-71
2021/04/28 06:23:47;;;;;;;;;;;18.80;99.90;;;;;;5013036;28;19910;-70
2021/04/28 06:26:13;;;;;;;;;;;18.80;99.90;;;;;;5013182;28;19948;-70
2021/04/28 06:28:42;;;;;;;;;;;18.80;99.90;;;;;;4995546;28;19921;-70
2021/04/28 06:31:09;;;;;;;;;;;18.80;99.90;;;;;;5012865;28;19920;-70
2021/04/28 06:33:36;;;;;;;;;;;18.70;99.90;;;;;;5013158;28;19928;-71
2021/04/28 06:36:03;;;;;;;;;;;18.70;99.90;;;;;;5013034;28;19993;-70
2021/04/28 06:38:29;;;;;;;;;;;18.70;99.90;;;;;;5012988;28;19910;-71
2021/04/28 06:40:56;;;;;;;;;;;18.70;99.90;;;;;;5012856;28;20406;-70
2021/04/28 06:43:23;;;;;;;;;;;18.80;99.90;;;;;;5012986;28;19909;-68
2021/04/28 06:45:49;;;;;;;;;;;18.70;99.90;;;;;;5012735;28;19995;-70
2021/04/28 06:48:16;;;;;;;;;;;18.70;99.90;;;;;;5012936;28;19920;-71
2021/04/28 06:50:43;;;;;;;;;;;18.60;99.90;;;;;;5012950;28;19910;-70
2021/04/28 06:53:09;;;;;;;;;;;18.60;99.90;;;;;;5012751;28;20021;-71
2021/04/28 06:55:36;;;;;;;;;;;18.60;99.90;;;;;;5012912;28;19918;-70
2021/04/28 06:58:02;;;;;;;;;;;18.60;99.90;;;;;;5002242;28;19965;-69
2021/04/28 07:00:29;;;;;;;;;;;18.60;99.90;;;;;;4993074;28;20387;-69
2021/04/28 07:02:57;;;;;;;;;;;18.60;99.90;;;;;;4992970;28;19914;-69
2021/04/28 07:05:26;;;;;;;;;;;18.50;99.90;;;;;;4993248;28;19917;-70
2021/04/28 07:07:53;;;;;;;;;;;18.50;99.90;;;;;;4993989;28;19910;-70
2021/04/28 07:10:20;;;;;;;;;;;18.50;99.90;;;;;;4993582;28;19945;-70
2021/04/28 07:12:47;;;;;;;;;;;18.40;99.90;;;;;;4993729;28;19920;-69
2021/04/28 07:15:14;;;;;;;;;;;18.40;99.90;;;;;;4995184;28;20385;-68
2021/04/28 07:17:40;;;;;;;;;;;18.40;99.90;;;;;;4997107;28;19913;-69
2021/04/28 07:20:08;;;;;;;;;;;18.30;99.90;;;;;;4996520;28;20238;-68
2021/04/28 07:22:35;;;;;;;;;;;18.30;99.90;;;;;;4996498;28;20013;-68
2021/04/28 07:25:02;;;;;;;;;;;18.30;99.90;;;;;;4995564;28;20024;-67
2021/04/28 07:27:29;;;;;;;;;;;18.30;99.90;;;;;;4996214;28;19910;-69
2021/04/28 07:29:56;;;;;;;;;;;18.30;99.90;;;;;;4996129;28;19913;-68
2021/04/28 07:32:23;;;;;;;;;;;18.20;99.90;;;;;;4995954;28;19910;-70
2021/04/28 07:34:50;;;;;;;;;;;18.20;99.90;;;;;;4995613;28;19918;-70
2021/04/28 07:37:17;;;;;;;;;;;18.20;99.90;;;;;;4996117;28;19910;-69
2021/04/28 07:39:44;;;;;;;;;;;18.20;99.90;;;;;;4994532;28;19920;-69
2021/04/28 07:42:11;;;;;;;;;;;18.20;99.90;;;;;;4993892;28;20008;-70
2021/04/28 07:44:37;;;;;;;;;;;18.10;99.90;;;;;;4993961;28;20257;-69
2021/04/28 07:47:05;;;;;;;;;;;18.10;99.90;;;;;;4993650;28;19909;-70
2021/04/28 07:49:32;;;;;;;;;;;18.10;99.90;;;;;;4993860;28;19921;-68
2021/04/28 07:51:58;;;;;;;;;;;18.00;99.90;;;;;;4993866;28;19916;-70
2021/04/28 07:54:27;;;;;;;;;;;18.00;99.90;;;;;;4993157;28;19925;-68
2021/04/28 07:56:54;;;;;;;;;;;18.10;99.90;;;;;;4993875;28;19957;-69
2021/04/28 07:59:21;;;;;;;;;;;18.00;99.90;;;;;;4993901;28;19921;-68
2021/04/28 08:01:48;;;;;;;;;;;18.10;99.90;;;;;;4993652;28;19914;-69
2021/04/28 08:04:15;;;;;;;;;;;18.00;99.90;;;;;;4993696;28;19967;-70
2021/04/28 08:06:42;;;;;;;;;;;18.00;99.90;;;;;;4993408;28;19910;-69
2021/04/28 08:09:09;;;;;;;;;;;18.00;99.90;;;;;;4993120;28;20376;-70
2021/04/28 08:11:35;;;;;;;;;;;18.00;99.90;;;;;;4993234;28;19924;-69
2021/04/28 08:14:02;;;;;;;;;;;18.00;99.90;;;;;;4993514;28;19922;-67
2021/04/28 08:16:31;;;;;;;;;;;18.00;99.90;;;;;;4991897;28;20381;-70
2021/04/28 08:18:58;;;;;;;;;;;18.00;99.90;;;;;;4993035;28;20005;-71
2021/04/28 08:21:25;;;;;;;;;;;17.90;99.90;;;;;;4993403;28;20289;-69
2021/04/28 08:23:51;;;;;;;;;;;17.90;99.90;;;;;;4992684;28;19952;-71
2021/04/28 08:26:18;;;;;;;;;;;17.90;99.90;;;;;;4993027;28;19917;-69
2021/04/28 08:28:46;;;;;;;;;;;17.90;99.90;;;;;;4992162;28;19957;-71
2021/04/28 08:31:14;;;;;;;;;;;17.90;99.90;;;;;;4992895;28;20369;-68
2021/04/28 08:33:42;;;;;;;;;;;17.90;99.90;;;;;;4992708;28;19967;-71
2021/04/28 08:36:09;;;;;;;;;;;17.90;99.90;;;;;;4993117;28;19938;-70
2021/04/28 08:38:36;;;;;;;;;;;17.80;99.90;;;;;;4991657;28;20392;-70
2021/04/28 08:41:04;;;;;;;;;;;17.80;99.90;;;;;;4993233;28;19922;-69
2021/04/28 08:43:31;;;;;;;;;;;17.80;99.90;;;;;;4996058;28;19921;-70
2021/04/28 08:46:01;;;;;;;;;;;17.80;99.90;;;;;;4992491;28;20041;-70
2021/04/28 08:48:29;;;;;;;;;;;17.80;99.90;;;;;;4992847;28;20001;-68
2021/04/28 08:50:55;;;;;;;;;;;17.80;99.90;;;;;;4992731;28;19914;-70
2021/04/28 08:53:23;;;;;;;;;;;17.80;99.90;;;;;;4992419;28;20281;-69
2021/04/28 08:55:50;;;;;;;;;;;17.70;99.90;;;;;;4992376;28;19909;-70
2021/04/28 08:58:17;;;;;;;;;;;17.70;99.90;;;;;;4992300;28;19919;-69
2021/04/28 09:00:43;;;;;;;;;;;17.70;99.90;;;;;;4992109;28;19910;-69
2021/04/28 09:03:16;;;;;;;;;;;17.70;99.90;;;;;;4992606;28;19910;-67
2021/04/28 09:05:44;;;;;;;;;;;17.70;99.90;;;;;;4993429;28;19910;-69
2021/04/28 09:08:11;;;;;;;;;;;17.70;99.90;;;;;;4993972;28;19953;-69
2021/04/28 09:10:42;;;;;;;;;;;17.60;99.90;;;;;;4994243;28;20270;-70
2021/04/28 09:13:10;;;;;;;;;;;17.60;99.90;;;;;;4994313;28;19922;-70
2021/04/28 09:15:44;;;;;;;;;;;17.60;99.90;;;;;;4994091;28;19917;-71
2021/04/28 09:18:12;;;;;;;;;;;17.60;99.90;;;;;;4994177;28;19917;-69
2021/04/28 09:20:45;;;;;;;;;;;17.50;99.90;;;;;;4993009;28;20012;-70
2021/04/28 09:23:14;;;;;;;;;;;17.60;99.90;;;;;;4993799;28;19910;-69
2021/04/28 09:25:48;;;;;;;;;;;17.50;99.90;;;;;;4994103;28;20277;-69
2021/04/28 09:28:20;;;;;;;;;;;17.50;99.90;;;;;;4994164;28;19910;-70
2021/04/28 09:30:46;;;;;;;;;;;17.50;99.90;;;;;;4993583;28;19914;-70
2021/04/28 09:33:13;;;;;;;;;;;17.50;99.90;;;;;;4993945;28;20368;-70
2021/04/28 09:35:40;;;;;;;;;;;17.50;99.90;;;;;;4993998;28;19916;-73
2021/04/28 09:38:07;;;;;;;;;;;17.50;99.90;;;;;;4993262;28;20233;-72
2021/04/28 09:40:40;;;;;;;;;;;17.50;99.90;;;;;;4992665;28;19922;-71
2021/04/28 09:43:07;;;;;;;;;;;17.40;99.90;;;;;;4993509;28;19914;-72
2021/04/28 09:45:52;;;;;;;;;;;17.40;99.90;;;;;;4993487;28;19909;-72
2021/04/28 09:48:19;;;;;;;;;;;17.40;99.90;;;;;;4993766;28;19917;-72
2021/04/28 09:50:46;;;;;;;;;;;17.40;99.90;;;;;;4993237;28;20364;-70
2021/04/28 09:53:26;;;;;;;;;;;17.40;99.90;;;;;;4993415;28;19913;-72
2021/04/28 09:55:52;;;;;;;;;;;17.40;99.90;;;;;;4993342;28;19996;-70
2021/04/28 09:58:39;;;;;;;;;;;17.30;99.90;;;;;;4993365;28;20360;-69
2021/04/28 10:01:05;;;;;;;;;;;17.30;99.90;;;;;;4993114;28;19910;-71
2021/04/28 10:03:45;;;;;;;;;;;17.40;99.90;;;;;;4993255;28;19909;-71
2021/04/28 10:06:12;;;;;;;;;;;17.30;99.90;;;;;;4992084;28;19914;-68
2021/04/28 10:08:38;;;;;;;;;;;17.30;99.90;;;;;;4993150;28;19917;-70
2021/04/28 10:11:05;;;;;;;;;;;17.30;99.90;;;;;;4992993;28;19909;-71
2021/04/28 10:13:32;;;;;;;;;;;17.30;99.90;;;;;;4993065;28;19925;-70
2021/04/28 10:15:58;;;;;;;;;;;17.20;99.90;;;;;;4993165;28;20280;-71
2021/04/28 10:18:26;;;;;;;;;;;17.20;99.90;;;;;;4993154;28;20373;-71
2021/04/28 10:20:54;;;;;;;;;;;17.20;99.90;;;;;;4993084;28;19945;-69
2021/04/28 10:23:21;;;;;;;;;;;17.20;99.90;;;;;;4991742;28;19910;-69
2021/04/28 10:25:48;;;;;;;;;;;17.20;99.90;;;;;;4993060;28;20284;-73
2021/04/28 10:28:16;;;;;;;;;;;17.20;99.90;;;;;;4993156;28;19972;-72
2021/04/28 10:30:43;;;;;;;;;;;17.20;99.90;;;;;;4993033;28;20284;-71
2021/04/28 10:33:14;;;;;;;;;;;17.20;99.90;;;;;;4992810;28;19914;-72
2021/04/28 10:35:41;;;;;;;;;;;17.10;99.90;;;;;;4993075;28;19964;-72
2021/04/28 10:38:08;;;;;;;;;;;17.10;99.90;;;;;;4993334;28;19925;-72
2021/04/28 10:40:36;;;;;;;;;;;17.00;99.90;;;;;;4992967;28;20287;-71
2021/04/28 10:43:10;;;;;;;;;;;17.00;99.90;;;;;;4992628;28;20205;-70
2021/04/28 10:45:38;;;;;;;;;;;17.00;99.90;;;;;;4992665;28;20404;-71
2021/04/28 10:48:11;;;;;;;;;;;17.00;99.90;;;;;;4992932;28;19910;-71
2021/04/28 10:50:46;;;;;;;;;;;17.00;99.90;;;;;;4993498;28;20297;-72
2021/04/28 10:53:28;;;;;;;;;;;17.00;99.90;;;;;;4996748;28;19914;-72
2021/04/28 10:55:59;;;;;;;;;;;17.00;99.90;;;;;;4996867;28;19914;-72
2021/04/28 10:58:26;;;;;;;;;;;17.00;99.90;;;;;;4996876;28;19914;-71
2021/04/28 11:00:59;;;;;;;;;;;17.00;99.90;;;;;;4996577;28;19963;-71
2021/04/28 11:03:30;;;;;;;;;;;17.00;99.90;;;;;;4996782;28;20119;-72
2021/04/28 11:05:59;;;;;;;;;;;16.90;99.90;;;;;;4996710;28;19925;-71
2021/04/28 11:08:29;;;;;;;;;;;16.90;99.90;;;;;;4996768;28;19977;-71
2021/04/28 11:10:56;;;;;;;;;;;16.90;99.90;;;;;;4996670;28;19956;-71
2021/04/28 11:13:24;;;;;;;;;;;16.90;99.90;;;;;;4996521;28;19922;-71
2021/04/28 11:15:51;;;;;;;;;;;16.90;99.90;;;;;;4996743;28;19909;-69
2021/04/28 11:18:34;;;;;;;;;;;16.90;99.90;;;;;;4996554;28;19910;-71
2021/04/28 11:21:25;;;;;;;;;;;16.90;99.90;;;;;;4996343;28;19910;-71
2021/04/28 11:24:11;;;;;;;;;;;16.90;99.90;;;;;;4996172;28;19917;-71
2021/04/28 11:26:39;;;;;;;;;;;17.00;99.90;;;;;;4996662;28;19909;-71
2021/04/28 11:29:07;;;;;;;;;;;17.00;99.90;;;;;;4996234;28;19917;-68
2021/04/28 11:31:44;;;;;;;;;;;17.00;99.90;;;;;;4996453;28;20018;-68
2021/04/28 11:34:17;;;;;;;;;;;17.10;99.90;;;;;;4996047;28;20261;-70
2021/04/28 11:36:55;;;;;;;;;;;17.00;99.90;;;;;;4996072;28;19926;-68
2021/04/28 11:39:37;;;;;;;;;;;17.00;99.90;;;;;;4994544;28;20427;-70
2021/04/28 11:42:05;;;;;;;;;;;17.00;99.90;;;;;;4994060;28;19932;-70
2021/04/28 11:44:32;;;;;;;;;;;17.00;99.90;;;;;;4994021;28;19944;-69
2021/04/28 11:47:13;;;;;;;;;;;17.00;99.90;;;;;;4993683;28;20450;-70
2021/04/28 11:49:47;;;;;;;;;;;16.90;99.90;;;;;;4994097;28;19910;-70
2021/04/28 11:52:15;;;;;;;;;;;16.80;99.90;;;;;;4993557;28;19917;-70
2021/04/28 11:54:42;;;;;;;;;;;16.80;99.90;;;;;;4993929;28;19978;-70
2021/04/28 11:57:09;;;;;;;;;;;16.70;99.90;;;;;;4993680;28;19909;-68
2021/04/28 11:59:37;;;;;;;;;;;16.70;99.90;;;;;;4993579;28;19949;-68
2021/04/28 12:02:11;;;;;;;;;;;16.70;99.90;;;;;;4992815;28;19910;-69
2021/04/28 12:04:38;;;;;;;;;;;16.70;99.90;;;;;;4993404;28;19914;-70
2021/04/28 12:07:06;;;;;;;;;;;16.70;99.90;;;;;;4993122;28;19952;-69
2021/04/28 12:09:37;;;;;;;;;;;16.60;99.90;;;;;;4993654;28;20384;-70
2021/04/28 12:12:11;;;;;;;;;;;16.60;99.90;;;;;;4993717;28;19937;-71
2021/04/28 12:14:39;;;;;;;;;;;16.60;99.90;;;;;;4993402;28;20422;-71
2021/04/28 12:17:05;;;;;;;;;;;16.60;99.90;;;;;;4993507;28;19933;-68
2021/04/28 12:19:32;;;;;;;;;;;16.60;99.90;;;;;;4993118;28;20419;-71
2021/04/28 12:22:09;;;;;;;;;;;16.60;99.90;;;;;;4975461;28;19910;-71
2021/04/28 12:24:40;;;;;;;;;;;16.60;99.90;;;;;;4993510;28;19921;-70
2021/04/28 12:27:08;;;;;;;;;;;16.60;99.90;;;;;;4993074;28;20312;-71
2021/04/28 12:29:36;;;;;;;;;;;16.60;99.90;;;;;;4993224;28;19921;-71
2021/04/28 12:32:03;;;;;;;;;;;16.60;99.90;;;;;;4992767;28;19918;-70
2021/04/28 12:34:30;;;;;;;;;;;16.60;99.90;;;;;;4993164;28;20392;-71
2021/04/28 12:37:06;;;;;;;;;;;16.70;99.90;;;;;;4992574;28;20046;-70
2021/04/28 12:39:33;;;;;;;;;;;16.70;99.90;;;;;;4993261;28;19910;-71
2021/04/28 12:42:00;;;;;;;;;;;16.70;99.90;;;;;;4992807;28;19922;-71
2021/04/28 12:44:26;;;;;;;;;;;16.70;99.90;;;;;;4992639;28;20365;-70
2021/04/28 12:46:54;;;;;;;;;;;16.70;99.90;;;;;;4992728;28;19976;-71
2021/04/28 12:49:24;;;;;;;;;;;16.70;99.90;;;;;;4992846;28;19984;-71
2021/04/28 12:51:54;;;;;;;;;;;16.70;99.90;;;;;;4992323;28;20223;-70
2021/04/28 12:54:27;;;;;;;;;;;16.70;99.90;;;;;;4975104;28;20265;-71
2021/04/28 12:56:54;;;;;;;;;;;16.70;99.90;;;;;;4993961;28;19910;-70
2021/04/28 12:59:23;;;;;;;;;;;16.70;99.90;;;;;;4977151;28;20313;-71
2021/04/28 13:02:00;;;;;;;;;;;16.70;99.90;;;;;;4994551;28;19910;-69
2021/04/28 13:04:27;;;;;;;;;;;16.60;99.90;;;;;;4994669;28;20308;-72
2021/04/28 13:07:09;;;;;;;;;;;16.50;99.90;;;;;;4994328;28;19909;-71
2021/04/28 13:09:36;;;;;;;;;;;16.40;99.90;;;;;;4994766;28;19965;-70
2021/04/28 13:12:02;;;;;;;;;;;16.40;99.90;;;;;;4994580;28;20303;-71
2021/04/28 13:14:49;;;;;;;;;;;16.40;99.90;;;;;;4994011;28;19971;-71
2021/04/28 13:17:15;;;;;;;;;;;16.30;99.90;;;;;;4994470;28;20362;-70
2021/04/28 13:19:42;;;;;;;;;;;16.20;99.90;;;;;;4994396;28;19910;-70
2021/04/28 13:22:14;;;;;;;;;;;16.10;99.90;;;;;;4993660;28;19913;-72
2021/04/28 13:24:45;;;;;;;;;;;16.10;99.90;;;;;;4994239;28;19910;-71
2021/04/28 13:27:17;;;;;;;;;;;16.10;99.90;;;;;;4994227;28;19972;-70
2021/04/28 13:29:51;;;;;;;;;;;16.00;99.90;;;;;;4994175;28;19910;-71
2021/04/28 13:32:28;;;;;;;;;;;16.10;99.90;;;;;;4994149;28;19914;-71
2021/04/28 13:34:55;;;;;;;;;;;16.00;99.90;;;;;;4993956;28;19953;-71
2021/04/28 13:37:22;;;;;;;;;;;16.10;99.90;;;;;;4993766;28;19996;-71
2021/04/28 13:39:49;;;;;;;;;;;16.00;99.90;;;;;;4993979;28;19932;-69
2021/04/28 13:42:16;;;;;;;;;;;16.00;99.90;;;;;;4992558;28;19926;-70
2021/04/28 13:44:43;;;;;;;;;;;16.00;99.90;;;;;;4993870;28;20439;-68
2021/04/28 13:47:10;;;;;;;;;;;16.00;99.90;;;;;;4994111;28;19909;-71
2021/04/28 13:49:37;;;;;;;;;;;16.10;99.90;;;;;;4993830;28;19917;-70
2021/04/28 13:52:04;;;;;;;;;;;16.10;99.90;;;;;;4993193;28;19910;-71
2021/04/28 13:54:31;;;;;;;;;;;16.10;99.90;;;;;;4993837;28;20376;-72
2021/04/28 13:56:57;;;;;;;;;;;16.10;99.90;;;;;;4993744;28;19914;-70
2021/04/28 13:59:24;;;;;;;;;;;16.10;99.90;;;;;;4993584;28;20404;-71
2021/04/28 14:01:51;;;;;;;;;;;16.10;99.90;;;;;;4993786;28;19910;-71
2021/04/28 14:04:18;;;;;;;;;;;16.10;99.90;;;;;;4993714;28;19910;-70
2021/04/28 14:06:45;;;;;;;;;;;16.10;99.90;;;;;;4992920;28;20324;-70
2021/04/28 14:09:12;;;;;;;;;;;16.10;99.90;;;;;;4993642;28;19910;-71
2021/04/28 14:11:42;;;;;;;;;;;16.10;99.90;;;;;;4993496;28;19909;-71
2021/04/28 14:14:10;;;;;;;;;;;16.10;99.90;;;;;;4993369;28;20012;-71
2021/04/28 14:16:36;;;;;;;;;;;16.10;99.90;;;;;;4993416;28;19914;-70
2021/04/28 14:19:03;;;;;;;;;;;16.10;99.90;;;;;;4993304;28;19921;-69
2021/04/28 14:21:30;;;;;;;;;;;16.10;99.90;;;;;;4993001;28;19910;-68